DFMCP EGTK-GMMX
Flight info
| Callsign | DFMCP |
|---|---|
| Flight time | N/A |
| Altitude | 28000 |
| Route | IXURA DCT NANUM DCT BUGUP DCT KIDLI UN859 CPT UL9 NORRY Q41 SAM N63 LELNA/N0300F270 DCT DEGEX/N0301F290 DCT GATMO DCT DELOG N864 PIMOS N869 GALTO UN869 SLK UB11 PELAX UN869 MABAP |
| Aircraft | TBM8/L-SBDGRWY/SB1 |
Departure
| Time | N/A |
|---|---|
| Airport | London Oxford Airport (EGTK) |
Arrival
| Time | 2026-05-07 19:06 |
|---|---|
| Airport | Marrakesh Menara Airport (GMMX) |
| Time | Latitude | Longitude | Altitude | Speed | Heading |
|---|---|---|---|---|---|
| 2026-05-07 16:46 | 39.61364 | -4.41540 | 28878 ft | 278 kts | 202° |
| 2026-05-07 16:47 | 39.59455 | -4.41948 | 28878 ft | 278 kts | 202° |
| 2026-05-07 16:47 | 39.57541 | -4.42355 | 28879 ft | 278 kts | 202° |
| 2026-05-07 16:47 | 39.55633 | -4.42761 | 28875 ft | 278 kts | 202° |
| 2026-05-07 16:47 | 39.53718 | -4.43166 | 28854 ft | 278 kts | 202° |
| 2026-05-07 16:48 | 39.51811 | -4.43569 | 28878 ft | 278 kts | 202° |
| 2026-05-07 16:48 | 39.49901 | -4.43976 | 28885 ft | 278 kts | 202° |
| 2026-05-07 16:48 | 39.48044 | -4.44371 | 28863 ft | 278 kts | 203° |
| 2026-05-07 16:48 | 39.46134 | -4.44777 | 28871 ft | 278 kts | 204° |
| 2026-05-07 16:49 | 39.44227 | -4.45182 | 28875 ft | 278 kts | 204° |
| 2026-05-07 16:49 | 39.42313 | -4.45587 | 28870 ft | 278 kts | 203° |
| 2026-05-07 16:49 | 39.40404 | -4.45991 | 28872 ft | 278 kts | 204° |
| 2026-05-07 16:49 | 39.38491 | -4.46397 | 28880 ft | 278 kts | 203° |
| 2026-05-07 16:50 | 39.36578 | -4.46802 | 28877 ft | 279 kts | 203° |
| 2026-05-07 16:50 | 39.34643 | -4.47208 | 28882 ft | 284 kts | 203° |
| 2026-05-07 16:50 | 39.32679 | -4.47623 | 28880 ft | 287 kts | 203° |
| 2026-05-07 16:50 | 39.30698 | -4.48047 | 28879 ft | 290 kts | 203° |
| 2026-05-07 16:51 | 39.28693 | -4.48476 | 28878 ft | 293 kts | 203° |
| 2026-05-07 16:51 | 39.26673 | -4.48907 | 28877 ft | 295 kts | 202° |
| 2026-05-07 16:51 | 39.24641 | -4.49337 | 28863 ft | 297 kts | 202° |
| 2026-05-07 16:51 | 39.22598 | -4.49767 | 28876 ft | 298 kts | 202° |
| 2026-05-07 16:52 | 39.20538 | -4.50198 | 28870 ft | 301 kts | 202° |
| 2026-05-07 16:52 | 39.16355 | -4.51072 | 28871 ft | 308 kts | 202° |
| 2026-05-07 16:53 | 39.12190 | -4.51965 | 28860 ft | 300 kts | 203° |
| 2026-05-07 16:53 | 39.10141 | -4.52397 | 28857 ft | 296 kts | 203° |
| 2026-05-07 16:53 | 39.08118 | -4.52817 | 28861 ft | 293 kts | 203° |
| 2026-05-07 16:53 | 39.06112 | -4.53231 | 28862 ft | 290 kts | 203° |
| 2026-05-07 16:54 | 39.04125 | -4.53642 | 28866 ft | 288 kts | 203° |
| 2026-05-07 16:54 | 39.02153 | -4.54052 | 28809 ft | 286 kts | 203° |
| 2026-05-07 16:54 | 39.00198 | -4.54459 | 28803 ft | 283 kts | 204° |
| 2026-05-07 16:54 | 38.98274 | -4.54855 | 28919 ft | 277 kts | 204° |
| 2026-05-07 16:55 | 38.96390 | -4.55236 | 29059 ft | 272 kts | 204° |
| 2026-05-07 16:55 | 38.94542 | -4.55613 | 29203 ft | 267 kts | 205° |
| 2026-05-07 16:55 | 38.92717 | -4.55989 | 29350 ft | 264 kts | 205° |
| 2026-05-07 16:55 | 38.91802 | -4.56178 | 29425 ft | 262 kts | 205° |
| 2026-05-07 16:56 | 38.90014 | -4.56552 | 29573 ft | 259 kts | 205° |
| 2026-05-07 16:56 | 38.88238 | -4.56922 | 29723 ft | 257 kts | 206° |
| 2026-05-07 16:56 | 38.84860 | -4.57618 | 29997 ft | 255 kts | 205° |
| 2026-05-07 16:57 | 38.83107 | -4.57967 | 30173 ft | 254 kts | 205° |
| 2026-05-07 16:57 | 38.81361 | -4.58326 | 30345 ft | 254 kts | 205° |
| 2026-05-07 16:57 | 38.79617 | -4.58694 | 30487 ft | 254 kts | 205° |
| 2026-05-07 16:57 | 38.77878 | -4.59060 | 30657 ft | 253 kts | 205° |
| 2026-05-07 16:58 | 38.76137 | -4.59429 | 30806 ft | 254 kts | 205° |
| 2026-05-07 16:58 | 38.74381 | -4.59809 | 30825 ft | 258 kts | 206° |
| 2026-05-07 16:58 | 38.72603 | -4.60205 | 30839 ft | 261 kts | 206° |
| 2026-05-07 16:58 | 38.70800 | -4.60600 | 30847 ft | 265 kts | 205° |
| 2026-05-07 16:59 | 38.68973 | -4.60988 | 30850 ft | 268 kts | 205° |
| 2026-05-07 16:59 | 38.67126 | -4.61373 | 30853 ft | 270 kts | 205° |
| 2026-05-07 16:59 | 38.65282 | -4.61753 | 30854 ft | 273 kts | 205° |
| 2026-05-07 16:59 | 38.63403 | -4.62139 | 30850 ft | 274 kts | 204° |
| 2026-05-07 17:00 | 38.61512 | -4.62528 | 30847 ft | 276 kts | 204° |
| 2026-05-07 17:00 | 38.59615 | -4.62919 | 30849 ft | 277 kts | 204° |
| 2026-05-07 17:00 | 38.57708 | -4.63312 | 30848 ft | 278 kts | 204° |
| 2026-05-07 17:00 | 38.55801 | -4.63706 | 30784 ft | 277 kts | 202° |
| 2026-05-07 17:01 | 38.53899 | -4.64096 | 30823 ft | 276 kts | 202° |
| 2026-05-07 17:01 | 38.52002 | -4.64484 | 30841 ft | 276 kts | 202° |
| 2026-05-07 17:01 | 38.50104 | -4.64876 | 30845 ft | 276 kts | 202° |
| 2026-05-07 17:01 | 38.48206 | -4.65268 | 30847 ft | 277 kts | 202° |
| 2026-05-07 17:02 | 38.46304 | -4.65660 | 30845 ft | 277 kts | 202° |
| 2026-05-07 17:02 | 38.44402 | -4.66052 | 30845 ft | 277 kts | 202° |
| 2026-05-07 17:02 | 38.42502 | -4.66444 | 30845 ft | 277 kts | 202° |
| 2026-05-07 17:02 | 38.40600 | -4.66836 | 30850 ft | 277 kts | 202° |
| 2026-05-07 17:03 | 38.38695 | -4.67228 | 30852 ft | 277 kts | 202° |
| 2026-05-07 17:03 | 38.36789 | -4.67620 | 30857 ft | 277 kts | 202° |
| 2026-05-07 17:03 | 38.34886 | -4.68011 | 30850 ft | 277 kts | 202° |
| 2026-05-07 17:03 | 38.32979 | -4.68402 | 30849 ft | 277 kts | 202° |
| 2026-05-07 17:04 | 38.31076 | -4.68793 | 30852 ft | 277 kts | 202° |
| 2026-05-07 17:04 | 38.29175 | -4.69182 | 30858 ft | 277 kts | 202° |
| 2026-05-07 17:04 | 38.27269 | -4.69574 | 30858 ft | 277 kts | 202° |
| 2026-05-07 17:04 | 38.25361 | -4.69966 | 30859 ft | 277 kts | 202° |
| 2026-05-07 17:05 | 38.23543 | -4.70340 | 30860 ft | 278 kts | 202° |
| 2026-05-07 17:05 | 38.21632 | -4.70733 | 30863 ft | 278 kts | 202° |
| 2026-05-07 17:05 | 38.19724 | -4.71124 | 30865 ft | 278 kts | 202° |
| 2026-05-07 17:05 | 38.17814 | -4.71515 | 30863 ft | 278 kts | 202° |
| 2026-05-07 17:06 | 38.15901 | -4.71908 | 30858 ft | 278 kts | 202° |
| 2026-05-07 17:06 | 38.13987 | -4.72301 | 30865 ft | 279 kts | 202° |
| 2026-05-07 17:06 | 38.12073 | -4.72692 | 30860 ft | 279 kts | 202° |
| 2026-05-07 17:06 | 38.10157 | -4.73085 | 30861 ft | 279 kts | 202° |
| 2026-05-07 17:07 | 38.08239 | -4.73476 | 30852 ft | 279 kts | 202° |
| 2026-05-07 17:07 | 38.06318 | -4.73867 | 30864 ft | 279 kts | 202° |
| 2026-05-07 17:07 | 38.04402 | -4.74259 | 30859 ft | 279 kts | 202° |
| 2026-05-07 17:07 | 38.02485 | -4.74652 | 30845 ft | 279 kts | 202° |
| 2026-05-07 17:08 | 38.00575 | -4.75044 | 30835 ft | 278 kts | 201° |
| 2026-05-07 17:08 | 37.98663 | -4.75406 | 30834 ft | 278 kts | 200° |
| 2026-05-07 17:08 | 37.96751 | -4.75731 | 30841 ft | 277 kts | 200° |
| 2026-05-07 17:08 | 37.94850 | -4.76070 | 30850 ft | 275 kts | 200° |
| 2026-05-07 17:09 | 37.92960 | -4.76432 | 30861 ft | 275 kts | 201° |
| 2026-05-07 17:09 | 37.91071 | -4.76808 | 30858 ft | 274 kts | 201° |
| 2026-05-07 17:09 | 37.89189 | -4.77188 | 30862 ft | 274 kts | 201° |
| 2026-05-07 17:09 | 37.87308 | -4.77569 | 30855 ft | 274 kts | 201° |
| 2026-05-07 17:10 | 37.85951 | -4.77844 | 30853 ft | 273 kts | 201° |
| 2026-05-07 17:10 | 37.84076 | -4.78224 | 30843 ft | 273 kts | 201° |
| 2026-05-07 17:10 | 37.82202 | -4.78602 | 30851 ft | 272 kts | 201° |
| 2026-05-07 17:10 | 37.80336 | -4.78981 | 30856 ft | 272 kts | 201° |
| 2026-05-07 17:11 | 37.78495 | -4.79354 | 30853 ft | 271 kts | 201° |
| 2026-05-07 17:11 | 37.76607 | -4.79736 | 30850 ft | 271 kts | 201° |
| 2026-05-07 17:11 | 37.74746 | -4.80113 | 30848 ft | 271 kts | 201° |
| 2026-05-07 17:11 | 37.72887 | -4.80489 | 30851 ft | 270 kts | 201° |
| 2026-05-07 17:12 | 37.71031 | -4.80863 | 30854 ft | 270 kts | 201° |
| 2026-05-07 17:12 | 37.69175 | -4.81239 | 30856 ft | 270 kts | 201° |
| 2026-05-07 17:12 | 37.67342 | -4.81609 | 30855 ft | 270 kts | 201° |
| 2026-05-07 17:12 | 37.65488 | -4.81983 | 30854 ft | 270 kts | 201° |
| 2026-05-07 17:13 | 37.63630 | -4.82358 | 30850 ft | 270 kts | 201° |
| 2026-05-07 17:13 | 37.61782 | -4.82731 | 30855 ft | 270 kts | 201° |
| 2026-05-07 17:13 | 37.59929 | -4.83104 | 30853 ft | 270 kts | 201° |
| 2026-05-07 17:13 | 37.58077 | -4.83476 | 30853 ft | 269 kts | 201° |
| 2026-05-07 17:14 | 37.56226 | -4.83849 | 30851 ft | 269 kts | 201° |
| 2026-05-07 17:14 | 37.54377 | -4.84221 | 30857 ft | 269 kts | 201° |
| 2026-05-07 17:14 | 37.52526 | -4.84594 | 30855 ft | 269 kts | 201° |
| 2026-05-07 17:14 | 37.50679 | -4.84965 | 30863 ft | 269 kts | 201° |
| 2026-05-07 17:15 | 37.48829 | -4.85337 | 30863 ft | 269 kts | 201° |
| 2026-05-07 17:15 | 37.46981 | -4.85707 | 30854 ft | 269 kts | 201° |
| 2026-05-07 17:15 | 37.45133 | -4.86078 | 30857 ft | 269 kts | 201° |
| 2026-05-07 17:15 | 37.43288 | -4.86447 | 30861 ft | 269 kts | 201° |
| 2026-05-07 17:16 | 37.41442 | -4.86817 | 30870 ft | 269 kts | 201° |
| 2026-05-07 17:16 | 37.39595 | -4.87188 | 30869 ft | 269 kts | 201° |
| 2026-05-07 17:16 | 37.37752 | -4.87558 | 30866 ft | 269 kts | 201° |
| 2026-05-07 17:16 | 37.35907 | -4.87927 | 30853 ft | 268 kts | 200° |
| 2026-05-07 17:17 | 37.34069 | -4.88293 | 30860 ft | 267 kts | 200° |
| 2026-05-07 17:17 | 37.32238 | -4.88659 | 30870 ft | 266 kts | 200° |
| 2026-05-07 17:17 | 37.30407 | -4.89025 | 30879 ft | 266 kts | 200° |
| 2026-05-07 17:17 | 37.28576 | -4.89391 | 30879 ft | 266 kts | 200° |
| 2026-05-07 17:18 | 37.26745 | -4.89757 | 30889 ft | 267 kts | 200° |
| 2026-05-07 17:18 | 37.24911 | -4.90125 | 30887 ft | 267 kts | 200° |
| 2026-05-07 17:18 | 37.23073 | -4.90492 | 30883 ft | 267 kts | 200° |
| 2026-05-07 17:18 | 37.21237 | -4.90858 | 30884 ft | 267 kts | 200° |
| 2026-05-07 17:19 | 37.19401 | -4.91225 | 30882 ft | 267 kts | 200° |
| 2026-05-07 17:19 | 37.17567 | -4.91589 | 30879 ft | 267 kts | 200° |
| 2026-05-07 17:19 | 37.15755 | -4.91951 | 30881 ft | 267 kts | 200° |
| 2026-05-07 17:19 | 37.13920 | -4.92315 | 30881 ft | 267 kts | 200° |
| 2026-05-07 17:20 | 37.12088 | -4.92680 | 30873 ft | 266 kts | 200° |
| 2026-05-07 17:20 | 37.10257 | -4.93043 | 30880 ft | 266 kts | 200° |
| 2026-05-07 17:20 | 37.08431 | -4.93405 | 30883 ft | 266 kts | 200° |
| 2026-05-07 17:20 | 37.06604 | -4.93760 | 30883 ft | 267 kts | 199° |
| 2026-05-07 17:21 | 37.04728 | -4.93940 | 30882 ft | 274 kts | 192° |
| 2026-05-07 17:21 | 37.02804 | -4.93832 | 30885 ft | 278 kts | 188° |
| 2026-05-07 17:21 | 37.01529 | -4.93749 | 30885 ft | 277 kts | 189° |
| 2026-05-07 17:21 | 36.98956 | -4.93613 | 30882 ft | 276 kts | 189° |
| 2026-05-07 17:22 | 36.97686 | -4.93552 | 30879 ft | 276 kts | 189° |
| 2026-05-07 17:22 | 36.95768 | -4.93460 | 30880 ft | 276 kts | 189° |
| 2026-05-07 17:22 | 36.93849 | -4.93367 | 30882 ft | 276 kts | 189° |
| 2026-05-07 17:22 | 36.91929 | -4.93272 | 30892 ft | 276 kts | 189° |
| 2026-05-07 17:23 | 36.90010 | -4.93176 | 30897 ft | 276 kts | 189° |
| 2026-05-07 17:23 | 36.88090 | -4.93074 | 30869 ft | 276 kts | 189° |
| 2026-05-07 17:23 | 36.86174 | -4.92954 | 30881 ft | 275 kts | 189° |
| 2026-05-07 17:23 | 36.84270 | -4.92868 | 30879 ft | 274 kts | 189° |
| 2026-05-07 17:24 | 36.82369 | -4.92782 | 30893 ft | 273 kts | 189° |
| 2026-05-07 17:24 | 36.80468 | -4.92691 | 30899 ft | 273 kts | 189° |
| 2026-05-07 17:24 | 36.78564 | -4.92595 | 30900 ft | 273 kts | 189° |
| 2026-05-07 17:24 | 36.76661 | -4.92498 | 30908 ft | 274 kts | 189° |
| 2026-05-07 17:25 | 36.74757 | -4.92400 | 30910 ft | 274 kts | 189° |
| 2026-05-07 17:25 | 36.72853 | -4.92301 | 30907 ft | 274 kts | 189° |
| 2026-05-07 17:25 | 36.70944 | -4.92203 | 30890 ft | 274 kts | 189° |
| 2026-05-07 17:25 | 36.69041 | -4.92104 | 30886 ft | 274 kts | 189° |
| 2026-05-07 17:26 | 36.67141 | -4.92006 | 30893 ft | 273 kts | 189° |
| 2026-05-07 17:26 | 36.65242 | -4.91908 | 30901 ft | 273 kts | 189° |
| 2026-05-07 17:26 | 36.63343 | -4.91811 | 30896 ft | 273 kts | 189° |
| 2026-05-07 17:26 | 36.61447 | -4.91714 | 30904 ft | 273 kts | 189° |
| 2026-05-07 17:27 | 36.59546 | -4.91609 | 30911 ft | 273 kts | 189° |
| 2026-05-07 17:27 | 36.57992 | -4.91531 | 30920 ft | 274 kts | 189° |
| 2026-05-07 17:27 | 36.56088 | -4.91442 | 30924 ft | 274 kts | 189° |
| 2026-05-07 17:27 | 36.54179 | -4.91350 | 30954 ft | 275 kts | 189° |
| 2026-05-07 17:28 | 36.52261 | -4.91254 | 30931 ft | 276 kts | 189° |
| 2026-05-07 17:28 | 36.50338 | -4.91156 | 30913 ft | 276 kts | 189° |
| 2026-05-07 17:28 | 36.48419 | -4.91056 | 30905 ft | 276 kts | 189° |
| 2026-05-07 17:28 | 36.46503 | -4.90955 | 30902 ft | 275 kts | 189° |
| 2026-05-07 17:29 | 36.44592 | -4.90855 | 30905 ft | 275 kts | 189° |
| 2026-05-07 17:29 | 36.42682 | -4.90754 | 30904 ft | 274 kts | 189° |
| 2026-05-07 17:29 | 36.40777 | -4.90654 | 30905 ft | 274 kts | 189° |
| 2026-05-07 17:29 | 36.38873 | -4.90556 | 30892 ft | 273 kts | 189° |
| 2026-05-07 17:30 | 36.36974 | -4.90458 | 30900 ft | 273 kts | 189° |
| 2026-05-07 17:30 | 36.35598 | -4.90387 | 30903 ft | 272 kts | 189° |
| 2026-05-07 17:30 | 36.33706 | -4.90290 | 30909 ft | 272 kts | 189° |
| 2026-05-07 17:30 | 36.31816 | -4.90193 | 30910 ft | 272 kts | 189° |
| 2026-05-07 17:31 | 36.29927 | -4.90097 | 30906 ft | 272 kts | 189° |
| 2026-05-07 17:31 | 36.28040 | -4.90000 | 30907 ft | 271 kts | 189° |
| 2026-05-07 17:31 | 36.26153 | -4.89903 | 30907 ft | 271 kts | 189° |
| 2026-05-07 17:31 | 36.24263 | -4.89807 | 30913 ft | 271 kts | 189° |
| 2026-05-07 17:32 | 36.22377 | -4.89710 | 30918 ft | 271 kts | 189° |
| 2026-05-07 17:32 | 36.20489 | -4.89614 | 30917 ft | 271 kts | 189° |
| 2026-05-07 17:32 | 36.18603 | -4.89518 | 30917 ft | 271 kts | 189° |
| 2026-05-07 17:32 | 36.16720 | -4.89435 | 30915 ft | 268 kts | 192° |
| 2026-05-07 17:33 | 36.14935 | -4.89766 | 30908 ft | 252 kts | 208° |
| 2026-05-07 17:33 | 36.13387 | -4.90653 | 30908 ft | 241 kts | 221° |
| 2026-05-07 17:33 | 36.11980 | -4.91768 | 30913 ft | 240 kts | 221° |
| 2026-05-07 17:33 | 36.10591 | -4.92866 | 30916 ft | 240 kts | 221° |
| 2026-05-07 17:34 | 36.09169 | -4.93990 | 30915 ft | 240 kts | 221° |
| 2026-05-07 17:34 | 36.07778 | -4.95089 | 30916 ft | 240 kts | 221° |
| 2026-05-07 17:34 | 36.06370 | -4.96204 | 30913 ft | 241 kts | 221° |
| 2026-05-07 17:34 | 36.04960 | -4.97318 | 30918 ft | 241 kts | 221° |
| 2026-05-07 17:35 | 36.03546 | -4.98436 | 30919 ft | 241 kts | 221° |
| 2026-05-07 17:35 | 36.02130 | -4.99554 | 30921 ft | 241 kts | 221° |
| 2026-05-07 17:35 | 36.00716 | -5.00672 | 30923 ft | 242 kts | 221° |
| 2026-05-07 17:35 | 35.99299 | -5.01790 | 30925 ft | 242 kts | 221° |
| 2026-05-07 17:36 | 35.97881 | -5.02909 | 30925 ft | 242 kts | 221° |
| 2026-05-07 17:36 | 35.96464 | -5.04023 | 30927 ft | 242 kts | 220° |
| 2026-05-07 17:36 | 35.95035 | -5.05126 | 30927 ft | 242 kts | 220° |
| 2026-05-07 17:36 | 35.93607 | -5.06235 | 30928 ft | 242 kts | 221° |
| 2026-05-07 17:37 | 35.92188 | -5.07355 | 30931 ft | 242 kts | 221° |
| 2026-05-07 17:37 | 35.90773 | -5.08487 | 30931 ft | 242 kts | 221° |
| 2026-05-07 17:37 | 35.89357 | -5.09617 | 30931 ft | 242 kts | 221° |
| 2026-05-07 17:37 | 35.88199 | -5.10538 | 30932 ft | 243 kts | 221° |
| 2026-05-07 17:38 | 35.86779 | -5.11662 | 30930 ft | 243 kts | 221° |
| 2026-05-07 17:38 | 35.85357 | -5.12783 | 30913 ft | 243 kts | 221° |
| 2026-05-07 17:38 | 35.83933 | -5.13904 | 30914 ft | 243 kts | 221° |
| 2026-05-07 17:38 | 35.82509 | -5.15026 | 30913 ft | 242 kts | 221° |
| 2026-05-07 17:39 | 35.81133 | -5.16209 | 30915 ft | 240 kts | 225° |
| 2026-05-07 17:39 | 35.79818 | -5.17468 | 30915 ft | 239 kts | 226° |
| 2026-05-07 17:39 | 35.78507 | -5.18732 | 30912 ft | 240 kts | 226° |
| 2026-05-07 17:39 | 35.77189 | -5.19992 | 30912 ft | 240 kts | 226° |
| 2026-05-07 17:40 | 35.75883 | -5.21225 | 30914 ft | 240 kts | 225° |
| 2026-05-07 17:40 | 35.74569 | -5.22452 | 30913 ft | 240 kts | 225° |
| 2026-05-07 17:40 | 35.73234 | -5.23691 | 30911 ft | 240 kts | 225° |
| 2026-05-07 17:40 | 35.71916 | -5.24910 | 30911 ft | 240 kts | 225° |
| 2026-05-07 17:41 | 35.70577 | -5.26145 | 30910 ft | 241 kts | 225° |
| 2026-05-07 17:41 | 35.69237 | -5.27379 | 30917 ft | 241 kts | 225° |
| 2026-05-07 17:41 | 35.67895 | -5.28613 | 30924 ft | 241 kts | 225° |
| 2026-05-07 17:41 | 35.66548 | -5.29853 | 30926 ft | 242 kts | 225° |
| 2026-05-07 17:42 | 35.65200 | -5.31093 | 30943 ft | 243 kts | 225° |
| 2026-05-07 17:42 | 35.63847 | -5.32339 | 30933 ft | 243 kts | 225° |
| 2026-05-07 17:42 | 35.62491 | -5.33584 | 30911 ft | 243 kts | 224° |
| 2026-05-07 17:42 | 35.61137 | -5.34827 | 30909 ft | 243 kts | 224° |
| 2026-05-07 17:43 | 35.59782 | -5.36069 | 30910 ft | 243 kts | 224° |
| 2026-05-07 17:43 | 35.58430 | -5.37308 | 30900 ft | 242 kts | 224° |
| 2026-05-07 17:43 | 35.57081 | -5.38543 | 30901 ft | 242 kts | 224° |
| 2026-05-07 17:43 | 35.55736 | -5.39775 | 30907 ft | 241 kts | 224° |
| 2026-05-07 17:44 | 35.54386 | -5.41009 | 30911 ft | 241 kts | 224° |
| 2026-05-07 17:44 | 35.53041 | -5.42240 | 30914 ft | 241 kts | 224° |
| 2026-05-07 17:44 | 35.51695 | -5.43474 | 30920 ft | 242 kts | 224° |
| 2026-05-07 17:44 | 35.50345 | -5.44709 | 30923 ft | 242 kts | 224° |
| 2026-05-07 17:45 | 35.48994 | -5.45945 | 30924 ft | 242 kts | 224° |
| 2026-05-07 17:45 | 35.47771 | -5.47064 | 30917 ft | 242 kts | 224° |
| 2026-05-07 17:45 | 35.46400 | -5.48316 | 30908 ft | 242 kts | 224° |
| 2026-05-07 17:45 | 35.45050 | -5.49549 | 30914 ft | 242 kts | 224° |
| 2026-05-07 17:46 | 35.43698 | -5.50782 | 30919 ft | 242 kts | 224° |
| 2026-05-07 17:46 | 35.42338 | -5.52020 | 30927 ft | 245 kts | 224° |
| 2026-05-07 17:46 | 35.40963 | -5.53270 | 30924 ft | 247 kts | 224° |
| 2026-05-07 17:46 | 35.39575 | -5.54535 | 30918 ft | 250 kts | 224° |
| 2026-05-07 17:47 | 35.38180 | -5.55809 | 30917 ft | 251 kts | 224° |
| 2026-05-07 17:47 | 35.36775 | -5.57090 | 30898 ft | 252 kts | 224° |
| 2026-05-07 17:47 | 35.35382 | -5.58362 | 30918 ft | 253 kts | 224° |
| 2026-05-07 17:47 | 35.33964 | -5.59655 | 30923 ft | 255 kts | 224° |
| 2026-05-07 17:48 | 35.32538 | -5.60953 | 30922 ft | 256 kts | 224° |
| 2026-05-07 17:48 | 35.31106 | -5.62256 | 30922 ft | 257 kts | 224° |
| 2026-05-07 17:48 | 35.29667 | -5.63563 | 30920 ft | 258 kts | 224° |
| 2026-05-07 17:48 | 35.28222 | -5.64876 | 30887 ft | 260 kts | 224° |
| 2026-05-07 17:49 | 35.26763 | -5.66206 | 30754 ft | 263 kts | 223° |
| 2026-05-07 17:49 | 35.25296 | -5.67546 | 30637 ft | 264 kts | 223° |
| 2026-05-07 17:49 | 35.23815 | -5.68892 | 30523 ft | 266 kts | 223° |
| 2026-05-07 17:49 | 35.22327 | -5.70241 | 30415 ft | 267 kts | 223° |
| 2026-05-07 17:50 | 35.20835 | -5.71593 | 30302 ft | 267 kts | 223° |
| 2026-05-07 17:50 | 35.19339 | -5.72946 | 30182 ft | 268 kts | 222° |
| 2026-05-07 17:50 | 35.17841 | -5.74300 | 30082 ft | 268 kts | 223° |
| 2026-05-07 17:50 | 35.16340 | -5.75656 | 29967 ft | 268 kts | 223° |
| 2026-05-07 17:51 | 35.14839 | -5.77013 | 29827 ft | 269 kts | 222° |
| 2026-05-07 17:51 | 35.13332 | -5.78374 | 29695 ft | 269 kts | 222° |
| 2026-05-07 17:51 | 35.11829 | -5.79731 | 29569 ft | 269 kts | 222° |
| 2026-05-07 17:51 | 35.10324 | -5.81092 | 29408 ft | 269 kts | 222° |
| 2026-05-07 17:52 | 35.08820 | -5.82450 | 29270 ft | 269 kts | 222° |
| 2026-05-07 17:52 | 35.07316 | -5.83806 | 29133 ft | 269 kts | 222° |
| 2026-05-07 17:52 | 35.05811 | -5.85163 | 29000 ft | 269 kts | 222° |
| 2026-05-07 17:52 | 35.04314 | -5.86512 | 28939 ft | 266 kts | 222° |
| 2026-05-07 17:53 | 35.02833 | -5.87843 | 28927 ft | 263 kts | 222° |
| 2026-05-07 17:53 | 35.01367 | -5.89159 | 28922 ft | 260 kts | 222° |
| 2026-05-07 17:53 | 34.99934 | -5.90452 | 28920 ft | 253 kts | 222° |
| 2026-05-07 17:53 | 34.98553 | -5.91699 | 28916 ft | 247 kts | 222° |
| 2026-05-07 17:54 | 34.97187 | -5.92925 | 28911 ft | 241 kts | 222° |
| 2026-05-07 17:54 | 34.95846 | -5.94125 | 28910 ft | 237 kts | 222° |
| 2026-05-07 17:54 | 34.94524 | -5.95305 | 28907 ft | 233 kts | 222° |
| 2026-05-07 17:54 | 34.93224 | -5.96468 | 28913 ft | 230 kts | 223° |
| 2026-05-07 17:55 | 34.91938 | -5.97619 | 28910 ft | 229 kts | 223° |
| 2026-05-07 17:55 | 34.90659 | -5.98766 | 28910 ft | 228 kts | 223° |
| 2026-05-07 17:55 | 34.89386 | -5.99909 | 28919 ft | 227 kts | 223° |
| 2026-05-07 17:55 | 34.88121 | -6.01047 | 28914 ft | 226 kts | 223° |
| 2026-05-07 17:56 | 34.86859 | -6.02178 | 28919 ft | 225 kts | 223° |
| 2026-05-07 17:56 | 34.85599 | -6.03307 | 28917 ft | 224 kts | 223° |
| 2026-05-07 17:56 | 34.84343 | -6.04433 | 28919 ft | 224 kts | 223° |
| 2026-05-07 17:56 | 34.83091 | -6.05555 | 28911 ft | 223 kts | 223° |
| 2026-05-07 17:57 | 34.81841 | -6.06673 | 28916 ft | 223 kts | 223° |
| 2026-05-07 17:57 | 34.81014 | -6.07414 | 28916 ft | 223 kts | 223° |
| 2026-05-07 17:57 | 34.79347 | -6.08905 | 28920 ft | 222 kts | 223° |
| 2026-05-07 17:57 | 34.78100 | -6.10020 | 28915 ft | 222 kts | 222° |
| 2026-05-07 17:58 | 34.76857 | -6.11131 | 28914 ft | 222 kts | 222° |
| 2026-05-07 17:58 | 34.75616 | -6.12240 | 28913 ft | 221 kts | 222° |
| 2026-05-07 17:58 | 34.74376 | -6.13347 | 28912 ft | 221 kts | 222° |
| 2026-05-07 17:58 | 34.73138 | -6.14453 | 28911 ft | 221 kts | 222° |
| 2026-05-07 17:59 | 34.71901 | -6.15557 | 28911 ft | 221 kts | 222° |
| 2026-05-07 17:59 | 34.70664 | -6.16661 | 28911 ft | 220 kts | 222° |
| 2026-05-07 17:59 | 34.69430 | -6.17762 | 28910 ft | 220 kts | 222° |
| 2026-05-07 17:59 | 34.68196 | -6.18863 | 28911 ft | 220 kts | 222° |
| 2026-05-07 18:00 | 34.66961 | -6.19963 | 28912 ft | 220 kts | 222° |
| 2026-05-07 18:00 | 34.65728 | -6.21061 | 28913 ft | 220 kts | 222° |
| 2026-05-07 18:00 | 34.64494 | -6.22159 | 28913 ft | 220 kts | 222° |
| 2026-05-07 18:00 | 34.63264 | -6.23254 | 28913 ft | 220 kts | 222° |
| 2026-05-07 18:01 | 34.62032 | -6.24351 | 28913 ft | 220 kts | 222° |
| 2026-05-07 18:01 | 34.60799 | -6.25448 | 28913 ft | 220 kts | 222° |
| 2026-05-07 18:01 | 34.59565 | -6.26545 | 28912 ft | 220 kts | 222° |
| 2026-05-07 18:01 | 34.58334 | -6.27639 | 28912 ft | 220 kts | 222° |
| 2026-05-07 18:02 | 34.55871 | -6.29827 | 28900 ft | 219 kts | 222° |
| 2026-05-07 18:02 | 34.54641 | -6.30917 | 28908 ft | 218 kts | 222° |
| 2026-05-07 18:02 | 34.53416 | -6.32004 | 28909 ft | 218 kts | 222° |
| 2026-05-07 18:03 | 34.52193 | -6.33089 | 28909 ft | 218 kts | 222° |
| 2026-05-07 18:03 | 34.50968 | -6.34176 | 28910 ft | 218 kts | 222° |
| 2026-05-07 18:03 | 34.49745 | -6.35260 | 28911 ft | 218 kts | 222° |
| 2026-05-07 18:03 | 34.48520 | -6.36345 | 28911 ft | 218 kts | 222° |
| 2026-05-07 18:04 | 34.47298 | -6.37429 | 28912 ft | 218 kts | 222° |
| 2026-05-07 18:04 | 34.46075 | -6.38512 | 28913 ft | 218 kts | 222° |
| 2026-05-07 18:04 | 34.44850 | -6.39597 | 28909 ft | 218 kts | 222° |
| 2026-05-07 18:04 | 34.43625 | -6.40680 | 28909 ft | 218 kts | 222° |
| 2026-05-07 18:05 | 34.42401 | -6.41763 | 28910 ft | 218 kts | 222° |
| 2026-05-07 18:05 | 34.41176 | -6.42845 | 28911 ft | 218 kts | 222° |
| 2026-05-07 18:05 | 34.39953 | -6.43926 | 28910 ft | 218 kts | 222° |
| 2026-05-07 18:05 | 34.39554 | -6.44278 | 28910 ft | 218 kts | 222° |
| 2026-05-07 18:06 | 34.38034 | -6.45622 | 28911 ft | 218 kts | 222° |
| 2026-05-07 18:06 | 34.36810 | -6.46701 | 28923 ft | 218 kts | 222° |
| 2026-05-07 18:06 | 34.35587 | -6.47782 | 28917 ft | 218 kts | 222° |
| 2026-05-07 18:06 | 34.34777 | -6.48497 | 28915 ft | 218 kts | 222° |
| 2026-05-07 18:07 | 34.33554 | -6.49576 | 28913 ft | 217 kts | 222° |
| 2026-05-07 18:07 | 34.32333 | -6.50652 | 28912 ft | 217 kts | 222° |
| 2026-05-07 18:07 | 34.31110 | -6.51730 | 28913 ft | 217 kts | 222° |
| 2026-05-07 18:07 | 34.29890 | -6.52805 | 28889 ft | 217 kts | 222° |
| 2026-05-07 18:08 | 34.28673 | -6.53876 | 28907 ft | 216 kts | 222° |
| 2026-05-07 18:08 | 34.27458 | -6.54946 | 28911 ft | 216 kts | 222° |
| 2026-05-07 18:08 | 34.26244 | -6.56014 | 28913 ft | 216 kts | 222° |
| 2026-05-07 18:08 | 34.25031 | -6.57081 | 28912 ft | 216 kts | 222° |
| 2026-05-07 18:09 | 34.23817 | -6.58148 | 28910 ft | 216 kts | 222° |
| 2026-05-07 18:09 | 34.22602 | -6.59215 | 28912 ft | 216 kts | 222° |
| 2026-05-07 18:09 | 34.21388 | -6.60282 | 28913 ft | 216 kts | 222° |
| 2026-05-07 18:09 | 34.20180 | -6.61345 | 28914 ft | 216 kts | 222° |
| 2026-05-07 18:10 | 34.18983 | -6.62397 | 28914 ft | 216 kts | 222° |
| 2026-05-07 18:10 | 34.17756 | -6.63474 | 28913 ft | 216 kts | 222° |
| 2026-05-07 18:10 | 34.16537 | -6.64542 | 28913 ft | 216 kts | 222° |
| 2026-05-07 18:10 | 34.15325 | -6.65604 | 28913 ft | 215 kts | 222° |
| 2026-05-07 18:11 | 34.14111 | -6.66669 | 28912 ft | 216 kts | 222° |
| 2026-05-07 18:11 | 34.12898 | -6.67732 | 28914 ft | 216 kts | 222° |
| 2026-05-07 18:11 | 34.11685 | -6.68797 | 28916 ft | 216 kts | 222° |
| 2026-05-07 18:11 | 34.10469 | -6.69861 | 28915 ft | 216 kts | 222° |
| 2026-05-07 18:12 | 34.09254 | -6.70925 | 28914 ft | 216 kts | 222° |
| 2026-05-07 18:12 | 34.08040 | -6.71988 | 28913 ft | 216 kts | 222° |
| 2026-05-07 18:12 | 34.06826 | -6.73049 | 28915 ft | 216 kts | 222° |
| 2026-05-07 18:12 | 34.05609 | -6.74114 | 28913 ft | 216 kts | 222° |
| 2026-05-07 18:13 | 34.04395 | -6.75175 | 28910 ft | 216 kts | 222° |
| 2026-05-07 18:13 | 34.03166 | -6.76218 | 28909 ft | 216 kts | 220° |
| 2026-05-07 18:13 | 34.01920 | -6.77231 | 28902 ft | 216 kts | 220° |
| 2026-05-07 18:13 | 34.00673 | -6.78238 | 28914 ft | 216 kts | 220° |
| 2026-05-07 18:14 | 33.99427 | -6.79251 | 28916 ft | 216 kts | 220° |
| 2026-05-07 18:14 | 33.98181 | -6.80267 | 28909 ft | 216 kts | 220° |
| 2026-05-07 18:14 | 33.96941 | -6.81285 | 28909 ft | 216 kts | 220° |
| 2026-05-07 18:14 | 33.95700 | -6.82304 | 28911 ft | 216 kts | 220° |
| 2026-05-07 18:15 | 33.94458 | -6.83322 | 28908 ft | 216 kts | 220° |
| 2026-05-07 18:15 | 33.93216 | -6.84341 | 28917 ft | 216 kts | 220° |
| 2026-05-07 18:15 | 33.91974 | -6.85361 | 28924 ft | 216 kts | 220° |
| 2026-05-07 18:15 | 33.90753 | -6.86363 | 28916 ft | 215 kts | 220° |
| 2026-05-07 18:16 | 33.89516 | -6.87378 | 28924 ft | 215 kts | 220° |
| 2026-05-07 18:16 | 33.88283 | -6.88390 | 28923 ft | 215 kts | 220° |
| 2026-05-07 18:16 | 33.87050 | -6.89402 | 28922 ft | 214 kts | 220° |
| 2026-05-07 18:16 | 33.85816 | -6.90413 | 28922 ft | 214 kts | 220° |
| 2026-05-07 18:17 | 33.84585 | -6.91421 | 28926 ft | 214 kts | 220° |
| 2026-05-07 18:17 | 33.83352 | -6.92431 | 28932 ft | 214 kts | 220° |
| 2026-05-07 18:17 | 33.82120 | -6.93439 | 28928 ft | 214 kts | 220° |
| 2026-05-07 18:17 | 33.80888 | -6.94448 | 28933 ft | 214 kts | 220° |
| 2026-05-07 18:18 | 33.79657 | -6.95457 | 28925 ft | 214 kts | 220° |
| 2026-05-07 18:18 | 33.78427 | -6.96462 | 28928 ft | 214 kts | 220° |
| 2026-05-07 18:18 | 33.77195 | -6.97469 | 28927 ft | 214 kts | 220° |
| 2026-05-07 18:18 | 33.75966 | -6.98473 | 28929 ft | 213 kts | 220° |
| 2026-05-07 18:19 | 33.74741 | -6.99476 | 28924 ft | 213 kts | 220° |
| 2026-05-07 18:19 | 33.74591 | -6.99598 | 28927 ft | 213 kts | 220° |
| 2026-05-07 18:19 | 33.73348 | -7.00613 | 28935 ft | 213 kts | 220° |
| 2026-05-07 18:19 | 33.72124 | -7.01613 | 28928 ft | 212 kts | 220° |
| 2026-05-07 18:20 | 33.70901 | -7.02611 | 28939 ft | 213 kts | 220° |
| 2026-05-07 18:20 | 33.69679 | -7.03608 | 28929 ft | 212 kts | 220° |
| 2026-05-07 18:20 | 33.68456 | -7.04605 | 28936 ft | 212 kts | 220° |
| 2026-05-07 18:20 | 33.67236 | -7.05601 | 28939 ft | 212 kts | 220° |
| 2026-05-07 18:21 | 33.66014 | -7.06598 | 28941 ft | 212 kts | 220° |
| 2026-05-07 18:21 | 33.64791 | -7.07594 | 28942 ft | 213 kts | 220° |
| 2026-05-07 18:21 | 33.63567 | -7.08591 | 28942 ft | 213 kts | 220° |
| 2026-05-07 18:21 | 33.62344 | -7.09588 | 28941 ft | 213 kts | 220° |
| 2026-05-07 18:22 | 33.61118 | -7.10586 | 28937 ft | 213 kts | 220° |
| 2026-05-07 18:22 | 33.60306 | -7.11246 | 28933 ft | 213 kts | 220° |
| 2026-05-07 18:22 | 33.58668 | -7.12578 | 28939 ft | 213 kts | 220° |
| 2026-05-07 18:22 | 33.57442 | -7.13576 | 28938 ft | 213 kts | 220° |
| 2026-05-07 18:23 | 33.56217 | -7.14572 | 28944 ft | 213 kts | 220° |
| 2026-05-07 18:23 | 33.54990 | -7.15569 | 28947 ft | 213 kts | 220° |
| 2026-05-07 18:23 | 33.53763 | -7.16566 | 28941 ft | 213 kts | 220° |
| 2026-05-07 18:23 | 33.52535 | -7.17563 | 28936 ft | 213 kts | 220° |
| 2026-05-07 18:24 | 33.51308 | -7.18558 | 28936 ft | 213 kts | 220° |
| 2026-05-07 18:24 | 33.50084 | -7.19552 | 28942 ft | 213 kts | 220° |
| 2026-05-07 18:24 | 33.48857 | -7.20547 | 28940 ft | 213 kts | 220° |
| 2026-05-07 18:24 | 33.47632 | -7.21540 | 28934 ft | 213 kts | 220° |
| 2026-05-07 18:25 | 33.46407 | -7.22533 | 28931 ft | 212 kts | 220° |
| 2026-05-07 18:25 | 33.45185 | -7.23523 | 28935 ft | 212 kts | 220° |
| 2026-05-07 18:25 | 33.43964 | -7.24513 | 28941 ft | 212 kts | 220° |
| 2026-05-07 18:25 | 33.42744 | -7.25500 | 28936 ft | 212 kts | 220° |
| 2026-05-07 18:26 | 33.41525 | -7.26486 | 28941 ft | 211 kts | 220° |
| 2026-05-07 18:26 | 33.40306 | -7.27473 | 28940 ft | 211 kts | 220° |
| 2026-05-07 18:26 | 33.39088 | -7.28458 | 28940 ft | 211 kts | 220° |
| 2026-05-07 18:26 | 33.37870 | -7.29443 | 28938 ft | 211 kts | 220° |
| 2026-05-07 18:27 | 33.36652 | -7.30428 | 28936 ft | 211 kts | 220° |
| 2026-05-07 18:27 | 33.35435 | -7.31411 | 28937 ft | 211 kts | 220° |
| 2026-05-07 18:27 | 33.34220 | -7.32392 | 28939 ft | 211 kts | 220° |
| 2026-05-07 18:27 | 33.33003 | -7.33375 | 28942 ft | 211 kts | 220° |
| 2026-05-07 18:28 | 33.31786 | -7.34357 | 28943 ft | 211 kts | 220° |
| 2026-05-07 18:28 | 33.30585 | -7.35326 | 28941 ft | 211 kts | 220° |
| 2026-05-07 18:28 | 33.29355 | -7.36319 | 28941 ft | 211 kts | 220° |
| 2026-05-07 18:28 | 33.28136 | -7.37302 | 28940 ft | 211 kts | 220° |
| 2026-05-07 18:29 | 33.26919 | -7.38283 | 28939 ft | 211 kts | 220° |
| 2026-05-07 18:29 | 33.25703 | -7.39263 | 28941 ft | 211 kts | 220° |
| 2026-05-07 18:29 | 33.24487 | -7.40241 | 28942 ft | 211 kts | 220° |
| 2026-05-07 18:29 | 33.23268 | -7.41222 | 28942 ft | 211 kts | 220° |
| 2026-05-07 18:30 | 33.22053 | -7.42200 | 28944 ft | 211 kts | 220° |
| 2026-05-07 18:30 | 33.20836 | -7.43180 | 28944 ft | 211 kts | 220° |
| 2026-05-07 18:30 | 33.19618 | -7.44160 | 28944 ft | 211 kts | 220° |
| 2026-05-07 18:30 | 33.18402 | -7.45138 | 28945 ft | 211 kts | 220° |
| 2026-05-07 18:31 | 33.17201 | -7.46103 | 28948 ft | 211 kts | 220° |
| 2026-05-07 18:31 | 33.15983 | -7.47082 | 28945 ft | 211 kts | 220° |
| 2026-05-07 18:31 | 33.14750 | -7.48072 | 28944 ft | 211 kts | 220° |
| 2026-05-07 18:31 | 33.13549 | -7.49037 | 28940 ft | 211 kts | 220° |
| 2026-05-07 18:32 | 33.12331 | -7.50014 | 28939 ft | 211 kts | 220° |
| 2026-05-07 18:32 | 33.11116 | -7.50990 | 28941 ft | 211 kts | 220° |
| 2026-05-07 18:32 | 33.09880 | -7.51935 | 28944 ft | 212 kts | 218° |
| 2026-05-07 18:32 | 33.08602 | -7.52821 | 28945 ft | 213 kts | 217° |
| 2026-05-07 18:33 | 33.07315 | -7.53690 | 28944 ft | 213 kts | 217° |
| 2026-05-07 18:33 | 33.06014 | -7.54577 | 28940 ft | 212 kts | 217° |
| 2026-05-07 18:33 | 33.04737 | -7.55460 | 28942 ft | 212 kts | 217° |
| 2026-05-07 18:33 | 33.03480 | -7.56338 | 28935 ft | 212 kts | 217° |
| 2026-05-07 18:34 | 33.02209 | -7.57229 | 28938 ft | 212 kts | 217° |
| 2026-05-07 18:34 | 33.00940 | -7.58120 | 28941 ft | 212 kts | 217° |
| 2026-05-07 18:34 | 32.99800 | -7.58922 | 28939 ft | 212 kts | 217° |
| 2026-05-07 18:34 | 32.98606 | -7.59764 | 28941 ft | 212 kts | 217° |
| 2026-05-07 18:35 | 32.97338 | -7.60654 | 28943 ft | 212 kts | 218° |
| 2026-05-07 18:35 | 32.96068 | -7.61547 | 28937 ft | 212 kts | 218° |
| 2026-05-07 18:35 | 32.94798 | -7.62440 | 28944 ft | 212 kts | 218° |
| 2026-05-07 18:35 | 32.93526 | -7.63334 | 28942 ft | 212 kts | 218° |
| 2026-05-07 18:36 | 32.92253 | -7.64230 | 28819 ft | 216 kts | 218° |
| 2026-05-07 18:36 | 32.90937 | -7.65165 | 28560 ft | 224 kts | 218° |
| 2026-05-07 18:36 | 32.89584 | -7.66130 | 28304 ft | 229 kts | 217° |
| 2026-05-07 18:36 | 32.88200 | -7.67111 | 28050 ft | 234 kts | 217° |
| 2026-05-07 18:37 | 32.86793 | -7.68101 | 27801 ft | 237 kts | 217° |
| 2026-05-07 18:37 | 32.85369 | -7.69100 | 27554 ft | 239 kts | 217° |
| 2026-05-07 18:37 | 32.83932 | -7.70106 | 27303 ft | 240 kts | 217° |
| 2026-05-07 18:37 | 32.82488 | -7.71116 | 27054 ft | 241 kts | 217° |
| 2026-05-07 18:38 | 32.81041 | -7.72128 | 26804 ft | 242 kts | 217° |
| 2026-05-07 18:38 | 32.79590 | -7.73142 | 26558 ft | 242 kts | 216° |
| 2026-05-07 18:38 | 32.78142 | -7.74155 | 26319 ft | 242 kts | 216° |
| 2026-05-07 18:38 | 32.76693 | -7.75168 | 26078 ft | 242 kts | 216° |
| 2026-05-07 18:39 | 32.75243 | -7.76182 | 25840 ft | 241 kts | 216° |
| 2026-05-07 18:39 | 32.73799 | -7.77192 | 25601 ft | 241 kts | 216° |
| 2026-05-07 18:39 | 32.72358 | -7.78199 | 25367 ft | 240 kts | 216° |
| 2026-05-07 18:39 | 32.70916 | -7.79207 | 25124 ft | 240 kts | 216° |
| 2026-05-07 18:40 | 32.69479 | -7.80209 | 24886 ft | 239 kts | 216° |
| 2026-05-07 18:40 | 32.68044 | -7.81212 | 24655 ft | 239 kts | 216° |
| 2026-05-07 18:40 | 32.66613 | -7.82210 | 24428 ft | 238 kts | 216° |
| 2026-05-07 18:40 | 32.65184 | -7.83207 | 24202 ft | 238 kts | 216° |
| 2026-05-07 18:41 | 32.63761 | -7.84200 | 23961 ft | 237 kts | 216° |
| 2026-05-07 18:41 | 32.62338 | -7.85191 | 23740 ft | 237 kts | 216° |
| 2026-05-07 18:41 | 32.60921 | -7.86179 | 23509 ft | 236 kts | 216° |
| 2026-05-07 18:41 | 32.59508 | -7.87163 | 23243 ft | 235 kts | 216° |
| 2026-05-07 18:42 | 32.58097 | -7.88145 | 22962 ft | 235 kts | 216° |
| 2026-05-07 18:42 | 32.56693 | -7.89123 | 22696 ft | 234 kts | 216° |
| 2026-05-07 18:42 | 32.55291 | -7.90099 | 22446 ft | 233 kts | 216° |
| 2026-05-07 18:42 | 32.53915 | -7.91055 | 22183 ft | 232 kts | 216° |
| 2026-05-07 18:43 | 32.52520 | -7.92024 | 21922 ft | 231 kts | 216° |
| 2026-05-07 18:43 | 32.51135 | -7.92986 | 21671 ft | 231 kts | 216° |
| 2026-05-07 18:43 | 32.49751 | -7.93948 | 21421 ft | 230 kts | 216° |
| 2026-05-07 18:43 | 32.48373 | -7.94906 | 21173 ft | 229 kts | 216° |
| 2026-05-07 18:44 | 32.47000 | -7.95860 | 20919 ft | 229 kts | 216° |
| 2026-05-07 18:44 | 32.45629 | -7.96811 | 20672 ft | 228 kts | 216° |
| 2026-05-07 18:44 | 32.44287 | -7.97742 | 20433 ft | 227 kts | 216° |
| 2026-05-07 18:44 | 32.42923 | -7.98686 | 20194 ft | 227 kts | 215° |
| 2026-05-07 18:45 | 32.41564 | -7.99627 | 19954 ft | 226 kts | 216° |
| 2026-05-07 18:45 | 32.40207 | -8.00568 | 19718 ft | 226 kts | 215° |
| 2026-05-07 18:45 | 32.38854 | -8.01507 | 19479 ft | 225 kts | 215° |
| 2026-05-07 18:45 | 32.37504 | -8.02442 | 19243 ft | 224 kts | 215° |
| 2026-05-07 18:46 | 32.36159 | -8.03373 | 18987 ft | 224 kts | 215° |
| 2026-05-07 18:46 | 32.34818 | -8.04301 | 18756 ft | 223 kts | 216° |
| 2026-05-07 18:46 | 32.33483 | -8.05224 | 18536 ft | 222 kts | 216° |
| 2026-05-07 18:46 | 32.32149 | -8.06146 | 18318 ft | 221 kts | 216° |
| 2026-05-07 18:47 | 32.30823 | -8.07064 | 18069 ft | 221 kts | 216° |
| 2026-05-07 18:47 | 32.29500 | -8.07979 | 17805 ft | 220 kts | 215° |
| 2026-05-07 18:47 | 32.28180 | -8.08890 | 17547 ft | 219 kts | 215° |
| 2026-05-07 18:47 | 32.26865 | -8.09799 | 17289 ft | 219 kts | 215° |
| 2026-05-07 18:48 | 32.25555 | -8.10704 | 17042 ft | 218 kts | 215° |
| 2026-05-07 18:48 | 32.24249 | -8.11606 | 16781 ft | 217 kts | 214° |
| 2026-05-07 18:48 | 32.22947 | -8.12502 | 16526 ft | 216 kts | 214° |
| 2026-05-07 18:48 | 32.21649 | -8.13397 | 16277 ft | 216 kts | 214° |
| 2026-05-07 18:49 | 32.20357 | -8.14290 | 16030 ft | 215 kts | 214° |
| 2026-05-07 18:49 | 32.19068 | -8.15178 | 15785 ft | 214 kts | 214° |
| 2026-05-07 18:49 | 32.18218 | -8.15762 | 15623 ft | 214 kts | 214° |
| 2026-05-07 18:49 | 32.16934 | -8.16644 | 15378 ft | 213 kts | 214° |
| 2026-05-07 18:50 | 32.15657 | -8.17525 | 15146 ft | 212 kts | 214° |
| 2026-05-07 18:50 | 32.14381 | -8.18402 | 14912 ft | 212 kts | 213° |
| 2026-05-07 18:50 | 32.13104 | -8.19268 | 14663 ft | 212 kts | 211° |
| 2026-05-07 18:50 | 32.11725 | -8.19849 | 14429 ft | 210 kts | 195° |
| 2026-05-07 18:51 | 32.10292 | -8.20028 | 14189 ft | 205 kts | 192° |
| 2026-05-07 18:51 | 32.08877 | -8.20269 | 13955 ft | 205 kts | 194° |
| 2026-05-07 18:51 | 32.07474 | -8.20539 | 13715 ft | 204 kts | 194° |
| 2026-05-07 18:51 | 32.06070 | -8.20788 | 13457 ft | 203 kts | 193° |
| 2026-05-07 18:52 | 32.04678 | -8.21044 | 13197 ft | 201 kts | 195° |
| 2026-05-07 18:52 | 32.03322 | -8.21423 | 12930 ft | 200 kts | 198° |
| 2026-05-07 18:52 | 32.01986 | -8.21862 | 12668 ft | 199 kts | 199° |
| 2026-05-07 18:52 | 32.00663 | -8.22328 | 12418 ft | 198 kts | 199° |
| 2026-05-07 18:53 | 31.99346 | -8.22811 | 12084 ft | 198 kts | 200° |
| 2026-05-07 18:53 | 31.98062 | -8.23301 | 11703 ft | 191 kts | 200° |
| 2026-05-07 18:53 | 31.96815 | -8.23787 | 11336 ft | 187 kts | 199° |
| 2026-05-07 18:53 | 31.95642 | -8.24252 | 10988 ft | 185 kts | 199° |
| 2026-05-07 18:54 | 31.94432 | -8.24744 | 10627 ft | 183 kts | 199° |
| 2026-05-07 18:54 | 31.93639 | -8.25075 | 10388 ft | 182 kts | 199° |
| 2026-05-07 18:54 | 31.92448 | -8.25584 | 10048 ft | 181 kts | 199° |
| 2026-05-07 18:54 | 31.91371 | -8.26056 | 9704 ft | 180 kts | 200° |
| 2026-05-07 18:55 | 31.90200 | -8.26577 | 9318 ft | 180 kts | 200° |
| 2026-05-07 18:55 | 31.89033 | -8.27102 | 8924 ft | 180 kts | 200° |
| 2026-05-07 18:55 | 31.88165 | -8.27493 | 8635 ft | 181 kts | 200° |
| 2026-05-07 18:55 | 31.86991 | -8.28024 | 8249 ft | 181 kts | 200° |
| 2026-05-07 18:56 | 31.85819 | -8.28554 | 7871 ft | 180 kts | 200° |
| 2026-05-07 18:56 | 31.84661 | -8.29083 | 7512 ft | 182 kts | 200° |
| 2026-05-07 18:56 | 31.83484 | -8.29625 | 7165 ft | 181 kts | 200° |
| 2026-05-07 18:56 | 31.82313 | -8.30175 | 6797 ft | 180 kts | 200° |
| 2026-05-07 18:57 | 31.81144 | -8.30716 | 6438 ft | 186 kts | 200° |
| 2026-05-07 18:57 | 31.79917 | -8.31274 | 6060 ft | 191 kts | 201° |
| 2026-05-07 18:57 | 31.78654 | -8.31803 | 5686 ft | 195 kts | 201° |
| 2026-05-07 18:57 | 31.77342 | -8.32163 | 5315 ft | 190 kts | 183° |
| 2026-05-07 18:58 | 31.76071 | -8.32164 | 4955 ft | 178 kts | 181° |
| 2026-05-07 18:58 | 31.74857 | -8.32111 | 4614 ft | 171 kts | 180° |
| 2026-05-07 18:58 | 31.73658 | -8.32009 | 4455 ft | 178 kts | 179° |
| 2026-05-07 18:58 | 31.72395 | -8.31890 | 4390 ft | 185 kts | 179° |
| 2026-05-07 18:59 | 31.71112 | -8.31767 | 4358 ft | 185 kts | 179° |
| 2026-05-07 18:59 | 31.69829 | -8.31659 | 4337 ft | 185 kts | 179° |
| 2026-05-07 18:59 | 31.68553 | -8.31525 | 4322 ft | 185 kts | 172° |
| 2026-05-07 18:59 | 31.67396 | -8.30852 | 4321 ft | 187 kts | 148° |
| 2026-05-07 19:00 | 31.66343 | -8.29964 | 4323 ft | 185 kts | 146° |
| 2026-05-07 19:00 | 31.65320 | -8.29065 | 4323 ft | 182 kts | 145° |
| 2026-05-07 19:00 | 31.64323 | -8.28159 | 4312 ft | 180 kts | 144° |
| 2026-05-07 19:00 | 31.63379 | -8.27284 | 4288 ft | 180 kts | 144° |
| 2026-05-07 19:01 | 31.62409 | -8.26377 | 4287 ft | 175 kts | 144° |
| 2026-05-07 19:01 | 31.61562 | -8.25388 | 4250 ft | 174 kts | 117° |
| 2026-05-07 19:01 | 31.61504 | -8.23965 | 4059 ft | 180 kts | 77° |
| 2026-05-07 19:01 | 31.61786 | -8.22574 | 4141 ft | 170 kts | 75° |
| 2026-05-07 19:02 | 31.62084 | -8.21225 | 4222 ft | 172 kts | 72° |
| 2026-05-07 19:02 | 31.62328 | -8.19832 | 4198 ft | 180 kts | 87° |
| 2026-05-07 19:02 | 31.62237 | -8.18362 | 3916 ft | 181 kts | 98° |
| 2026-05-07 19:02 | 31.62040 | -8.16939 | 3619 ft | 169 kts | 101° |
| 2026-05-07 19:03 | 31.61794 | -8.15627 | 3100 ft | 164 kts | 103° |
| 2026-05-07 19:03 | 31.61567 | -8.14312 | 2590 ft | 163 kts | 98° |
| 2026-05-07 19:03 | 31.61475 | -8.12947 | 2186 ft | 172 kts | 92° |
| 2026-05-07 19:03 | 31.61408 | -8.11597 | 2164 ft | 164 kts | 95° |
| 2026-05-07 19:04 | 31.61287 | -8.10272 | 2115 ft | 150 kts | 98° |
| 2026-05-07 19:04 | 31.61178 | -8.09195 | 2048 ft | 119 kts | 96° |
| 2026-05-07 19:04 | 31.61110 | -8.08302 | 1981 ft | 107 kts | 96° |
| 2026-05-07 19:04 | 31.61034 | -8.07470 | 1857 ft | 102 kts | 96° |
| 2026-05-07 19:05 | 31.60964 | -8.06643 | 1751 ft | 99 kts | 97° |
| 2026-05-07 19:05 | 31.60896 | -8.05852 | 1643 ft | 98 kts | 96° |
| 2026-05-07 19:05 | 31.60817 | -8.05062 | 1537 ft | 91 kts | 98° |
| 2026-05-07 19:05 | 31.60757 | -8.04422 | 1529 ft | 68 kts | 97° |
| 2026-05-07 19:06 | 31.60710 | -8.03904 | 1534 ft | 62 kts | 96° |
| 2026-05-07 19:06 | 31.60575 | -8.03154 | 1540 ft | 23 kts | 121° |
| 2026-05-07 19:06 | 31.60476 | -8.02990 | 1544 ft | 18 kts | 125° |
| 2026-05-07 19:07 | 31.60444 | -8.02813 | 1544 ft | 25 kts | 95° |
| 2026-05-07 19:07 | 31.60428 | -8.02615 | 1544 ft | 27 kts | 97° |
| 2026-05-07 19:07 | 31.60413 | -8.02431 | 1544 ft | 19 kts | 96° |
| 2026-05-07 19:07 | 31.60394 | -8.02233 | 1544 ft | 30 kts | 94° |
| 2026-05-07 19:08 | 31.60377 | -8.02037 | 1544 ft | 18 kts | 95° |
| 2026-05-07 19:08 | 31.60362 | -8.01876 | 1544 ft | 19 kts | 92° |
| 2026-05-07 19:08 | 31.60341 | -8.01740 | 1544 ft | 13 kts | 140° |
| 2026-05-07 19:08 | 31.60290 | -8.01756 | 1543 ft | 6 kts | 281° |
| 2026-05-07 19:09 | 31.60292 | -8.01774 | 1544 ft | 0 kts | 276° |